createdAt,value
2018-03-29T00:00:24.754Z,66.83
2018-03-29T00:02:52.185Z,65.99
2018-03-29T00:05:19.572Z,66.01
2018-03-29T00:07:46.968Z,65.65
2018-03-29T00:10:14.414Z,66.50
2018-03-29T00:12:41.775Z,65.72
2018-03-29T00:15:09.167Z,65.17
2018-03-29T00:17:36.918Z,65.80
2018-03-29T00:20:04.301Z,65.58
2018-03-29T00:22:31.691Z,66.18
2018-03-29T00:24:59.082Z,64.51
2018-03-29T00:27:26.479Z,65.12
2018-03-29T00:29:53.859Z,65.10
2018-03-29T00:32:21.251Z,65.21
2018-03-29T00:34:48.631Z,64.80
2018-03-29T00:37:16.007Z,65.61
2018-03-29T00:39:43.490Z,65.50
2018-03-29T00:42:10.902Z,65.71
2018-03-29T00:44:38.298Z,65.95
2018-03-29T00:47:07.018Z,65.44
2018-03-29T00:49:34.412Z,65.44
2018-03-29T00:52:01.840Z,65.30
2018-03-29T00:54:29.256Z,64.84
2018-03-29T00:56:56.634Z,64.91
2018-03-29T00:59:24.073Z,64.88
2018-03-29T01:01:51.489Z,64.61
2018-03-29T01:04:18.917Z,65.09
2018-03-29T01:06:46.307Z,64.95
2018-03-29T01:09:14.088Z,64.76
2018-03-29T01:11:41.484Z,65.40
2018-03-29T01:14:08.873Z,65.93
2018-03-29T01:16:37.245Z,65.95
2018-03-29T01:19:04.633Z,66.09
2018-03-29T01:21:32.036Z,66.15
2018-03-29T01:23:59.417Z,67.24
2018-03-29T01:26:29.361Z,65.65
2018-03-29T01:28:56.752Z,65.88
2018-03-29T01:31:24.150Z,66.36
2018-03-29T01:33:51.525Z,66.76
2018-03-29T01:36:18.936Z,65.14
2018-03-29T01:38:46.318Z,65.59
2018-03-29T01:41:13.713Z,65.28
2018-03-29T01:43:41.098Z,65.38
2018-03-29T01:46:08.491Z,65.88
2018-03-29T01:48:35.888Z,66.30
2018-03-29T01:51:03.273Z,66.33
2018-03-29T01:53:30.878Z,65.91
2018-03-29T01:55:58.266Z,66.22
2018-03-29T01:58:25.669Z,66.10
2018-03-29T02:00:53.069Z,69.50
2018-03-29T02:03:20.460Z,66.42
2018-03-29T02:05:47.844Z,65.72
2018-03-29T02:08:15.234Z,66.10
2018-03-29T02:10:42.628Z,66.33
2018-03-29T02:13:10.017Z,65.61
2018-03-29T02:15:37.668Z,65.66
2018-03-29T02:18:05.062Z,66.12
2018-03-29T02:20:32.466Z,64.92
2018-03-29T02:22:59.839Z,65.25
2018-03-29T02:25:27.249Z,65.15
2018-03-29T02:27:54.634Z,64.55
2018-03-29T02:30:23.071Z,66.05
2018-03-29T02:32:50.572Z,65.07
2018-03-29T02:37:51.713Z,65.27
2018-03-29T02:40:19.220Z,65.71
2018-03-29T02:42:46.613Z,64.89
2018-03-29T02:45:14.005Z,65.10
2018-03-29T02:47:41.384Z,64.62
2018-03-29T02:50:08.933Z,64.84
2018-03-29T02:52:36.368Z,64.20
2018-03-29T02:55:03.762Z,63.94
2018-03-29T02:57:31.145Z,64.90
2018-03-29T02:59:58.534Z,64.42
2018-03-29T03:02:25.923Z,65.09
2018-03-29T03:04:53.331Z,64.82
2018-03-29T03:07:20.717Z,64.73
2018-03-29T03:09:48.100Z,65.08
2018-03-29T03:12:15.480Z,64.84
2018-03-29T03:14:42.860Z,65.69
2018-03-29T03:17:10.264Z,66.34
2018-03-29T03:19:37.817Z,64.58
2018-03-29T03:22:05.296Z,64.86
2018-03-29T03:24:32.709Z,63.92
2018-03-29T03:27:00.118Z,64.01
2018-03-29T03:29:27.490Z,65.80
2018-03-29T03:31:54.872Z,64.06
2018-03-29T03:34:22.244Z,65.66
2018-03-29T03:36:49.690Z,64.48
2018-03-29T03:39:17.128Z,65.92
2018-03-29T03:41:44.533Z,65.37
2018-03-29T03:44:11.896Z,64.50
2018-03-29T03:46:39.300Z,64.27
2018-03-29T03:49:06.699Z,65.10
2018-03-29T03:51:34.087Z,64.83
2018-03-29T03:54:01.471Z,66.11
2018-03-29T03:56:28.866Z,64.62
2018-03-29T03:58:56.256Z,66.58
2018-03-29T04:01:23.645Z,64.57
2018-03-29T04:03:51.116Z,65.49
2018-03-29T04:06:18.513Z,64.15
2018-03-29T04:08:45.921Z,64.37
2018-03-29T04:11:13.319Z,65.04
2018-03-29T04:13:40.705Z,64.82
2018-03-29T04:16:08.137Z,64.76
2018-03-29T04:18:35.505Z,64.25
2018-03-29T04:21:02.928Z,64.85
2018-03-29T04:23:30.320Z,64.72
2018-03-29T04:25:57.718Z,65.53
2018-03-29T04:28:25.092Z,65.18
2018-03-29T04:30:52.585Z,66.05
2018-03-29T04:33:19.976Z,66.51
2018-03-29T04:35:47.381Z,66.19
2018-03-29T04:38:14.764Z,66.88
2018-03-29T04:40:42.135Z,67.15
2018-03-29T04:43:09.536Z,67.30
2018-03-29T04:45:36.920Z,66.58
2018-03-29T04:48:04.314Z,67.12
2018-03-29T04:50:31.710Z,66.92
2018-03-29T04:52:59.145Z,66.31
2018-03-29T04:55:26.596Z,67.25
2018-03-29T04:57:53.933Z,66.86
2018-03-29T05:00:21.323Z,66.50
2018-03-29T05:02:48.713Z,66.36
2018-03-29T05:05:16.129Z,66.71
2018-03-29T05:07:43.509Z,66.35
2018-03-29T05:10:10.905Z,66.21
2018-03-29T05:12:38.500Z,66.58
2018-03-29T05:15:05.902Z,66.57
2018-03-29T05:17:33.296Z,65.76
2018-03-29T05:20:00.675Z,65.18
2018-03-29T05:22:28.094Z,65.61
2018-03-29T05:24:55.468Z,65.32
2018-03-29T05:27:25.804Z,65.30
2018-03-29T05:29:53.182Z,66.43
2018-03-29T05:32:20.569Z,66.15
2018-03-29T05:34:47.956Z,66.48
2018-03-29T05:37:15.350Z,65.77
2018-03-29T05:39:42.746Z,66.52
2018-03-29T05:42:10.165Z,66.76
2018-03-29T05:44:38.415Z,66.71
2018-03-29T05:47:05.816Z,66.55
2018-03-29T05:49:35.142Z,67.02
2018-03-29T05:52:02.685Z,66.84
2018-03-29T05:54:30.099Z,66.04
2018-03-29T05:56:57.477Z,66.91
2018-03-29T05:59:24.870Z,66.06
2018-03-29T06:01:52.298Z,66.56
2018-03-29T06:04:19.694Z,66.56
2018-03-29T06:06:47.073Z,66.40
2018-03-29T06:09:14.467Z,66.69
2018-03-29T06:11:41.921Z,66.31
2018-03-29T06:14:09.313Z,66.37
2018-03-29T06:16:42.198Z,66.15
2018-03-29T06:19:09.597Z,66.23
2018-03-29T06:21:37.005Z,65.52
2018-03-29T06:24:04.412Z,65.77
2018-03-29T06:26:31.811Z,65.92
2018-03-29T06:29:00.739Z,65.89
2018-03-29T06:31:28.167Z,65.15
2018-03-29T06:33:55.585Z,64.70
2018-03-29T06:36:23.003Z,65.43
2018-03-29T06:38:50.396Z,65.09
2018-03-29T06:41:17.789Z,64.57
2018-03-29T06:43:45.182Z,64.69
2018-03-29T06:46:12.747Z,64.58
2018-03-29T06:48:40.181Z,64.81
2018-03-29T06:51:07.558Z,63.84
2018-03-29T06:53:34.955Z,63.09
2018-03-29T06:56:02.351Z,63.54
2018-03-29T06:58:29.733Z,63.48
2018-03-29T07:00:57.192Z,62.76
2018-03-29T07:03:24.661Z,62.53
2018-03-29T07:05:52.221Z,62.78
2018-03-29T07:08:19.633Z,62.79
2018-03-29T07:10:47.038Z,62.80
2018-03-29T07:13:14.452Z,62.80
2018-03-29T07:15:41.902Z,62.79
2018-03-29T07:18:10.106Z,63.14
2018-03-29T07:20:37.510Z,62.89
2018-03-29T07:23:04.911Z,63.68
2018-03-29T07:25:32.370Z,62.69
2018-03-29T07:27:59.790Z,62.47
2018-03-29T07:30:27.229Z,62.19
2018-03-29T07:32:55.530Z,62.94
2018-03-29T07:35:22.999Z,62.07
2018-03-29T07:37:50.386Z,62.03
2018-03-29T07:40:17.810Z,61.91
2018-03-29T07:42:45.205Z,62.18
2018-03-29T07:45:13.012Z,61.00
2018-03-29T07:47:40.405Z,61.86
2018-03-29T07:50:07.781Z,60.55
2018-03-29T07:52:35.229Z,60.19
2018-03-29T07:55:02.656Z,61.16
2018-03-29T07:57:30.041Z,60.31
2018-03-29T07:59:57.472Z,60.01
2018-03-29T08:02:24.857Z,60.51
2018-03-29T08:04:52.255Z,61.68
2018-03-29T08:07:19.756Z,61.49
2018-03-29T08:09:47.173Z,61.42
2018-03-29T08:12:14.590Z,60.64
2018-03-29T08:14:41.980Z,60.74
2018-03-29T08:17:09.393Z,61.16
2018-03-29T08:19:36.824Z,62.40
2018-03-29T08:22:04.216Z,62.59
2018-03-29T08:24:31.624Z,61.91
2018-03-29T08:26:59.017Z,61.97
2018-03-29T08:29:26.427Z,62.27
2018-03-29T08:31:53.804Z,62.82
2018-03-29T08:34:21.978Z,63.03
2018-03-29T08:36:49.378Z,62.40
2018-03-29T08:39:16.795Z,61.05
2018-03-29T08:41:44.276Z,62.32
2018-03-29T08:44:12.708Z,62.59
2018-03-29T08:46:40.179Z,63.36
2018-03-29T08:49:07.599Z,63.75
2018-03-29T08:51:35.297Z,64.04
2018-03-29T08:54:02.687Z,63.80
2018-03-29T08:56:30.106Z,64.59
2018-03-29T08:58:57.542Z,64.26
2018-03-29T09:01:25.073Z,63.89
2018-03-29T09:03:52.466Z,63.85
2018-03-29T09:06:20.635Z,63.49
2018-03-29T09:08:48.058Z,63.05
2018-03-29T09:11:15.440Z,61.63
2018-03-29T09:13:42.824Z,62.09
2018-03-29T09:16:10.234Z,61.87
2018-03-29T09:18:38.115Z,61.71
2018-03-29T09:21:05.573Z,61.85
2018-03-29T09:23:32.906Z,60.25
2018-03-29T09:26:00.309Z,60.76
2018-03-29T09:28:27.724Z,59.88
2018-03-29T09:30:55.140Z,57.70
2018-03-29T09:33:22.530Z,58.92
2018-03-29T09:35:54.948Z,57.61
2018-03-29T09:38:22.354Z,57.38
2018-03-29T09:40:49.759Z,54.48
2018-03-29T09:43:17.165Z,54.31
2018-03-29T09:45:44.594Z,53.38
2018-03-29T09:48:12.059Z,54.65
2018-03-29T09:50:39.587Z,53.34
2018-03-29T09:53:06.997Z,53.12
2018-03-29T09:55:34.461Z,53.08
2018-03-29T09:58:01.799Z,52.46
2018-03-29T10:00:35.142Z,51.74
2018-03-29T10:03:08.101Z,51.39
2018-03-29T10:05:38.440Z,51.30
2018-03-29T10:08:05.825Z,50.28
2018-03-29T10:10:33.217Z,50.60
2018-03-29T10:13:00.701Z,49.98
2018-03-29T10:15:28.113Z,49.91
2018-03-29T10:17:55.511Z,49.84
2018-03-29T10:20:22.896Z,48.29
2018-03-29T10:22:50.313Z,47.48
2018-03-29T10:25:17.703Z,47.41
2018-03-29T10:27:45.114Z,46.28
2018-03-29T10:30:13.573Z,47.70
2018-03-29T10:32:40.995Z,46.65
2018-03-29T10:35:08.377Z,46.85
2018-03-29T10:37:35.777Z,47.46
2018-03-29T10:40:03.413Z,46.72
2018-03-29T10:42:31.026Z,47.55
2018-03-29T10:44:58.453Z,45.94
2018-03-29T10:47:25.857Z,46.68
2018-03-29T10:49:53.314Z,47.08
2018-03-29T10:52:20.781Z,48.47
2018-03-29T10:54:48.161Z,47.86
2018-03-29T10:57:15.557Z,47.38
2018-03-29T10:59:42.966Z,47.50
2018-03-29T11:02:10.573Z,48.05
2018-03-29T11:04:37.970Z,46.73
2018-03-29T11:07:05.366Z,47.37
2018-03-29T11:09:32.761Z,47.76
2018-03-29T11:12:00.172Z,47.93
2018-03-29T11:14:27.584Z,48.03
2018-03-29T11:16:54.981Z,47.49
2018-03-29T11:19:22.370Z,48.70
2018-03-29T11:21:49.794Z,48.14
2018-03-29T11:24:17.178Z,47.93
2018-03-29T11:26:44.634Z,47.33
2018-03-29T11:29:12.033Z,47.74
2018-03-29T11:31:40.085Z,47.20
2018-03-29T11:34:07.494Z,46.66
2018-03-29T11:36:34.889Z,46.92
2018-03-29T11:39:02.297Z,47.14
2018-03-29T11:41:29.681Z,47.11
2018-03-29T11:43:57.066Z,47.83
2018-03-29T11:46:24.526Z,47.69
2018-03-29T11:48:53.204Z,46.08
2018-03-29T11:51:20.619Z,46.94
2018-03-29T11:53:48.111Z,46.37
2018-03-29T11:56:15.496Z,45.93
2018-03-29T11:58:42.912Z,44.95
2018-03-29T12:01:10.390Z,43.02
2018-03-29T12:03:37.802Z,44.49
2018-03-29T12:06:05.334Z,41.72
2018-03-29T12:08:32.857Z,42.33
2018-03-29T12:11:00.280Z,40.67
2018-03-29T12:13:27.777Z,42.74
2018-03-29T12:15:55.844Z,41.49
2018-03-29T12:18:23.383Z,41.17
2018-03-29T12:20:50.755Z,39.41
2018-03-29T12:23:18.173Z,37.10
2018-03-29T12:25:45.553Z,39.72
2018-03-29T12:28:12.951Z,38.89
2018-03-29T12:30:40.476Z,38.40
2018-03-29T12:33:07.875Z,39.37
2018-03-29T12:35:35.296Z,38.19
2018-03-29T12:38:02.764Z,37.58
2018-03-29T12:40:30.163Z,38.88
2018-03-29T12:42:57.638Z,38.12
2018-03-29T12:45:25.096Z,38.70
2018-03-29T12:47:52.475Z,38.06
2018-03-29T12:50:20.880Z,37.37
2018-03-29T12:52:48.492Z,37.83
2018-03-29T12:55:27.558Z,38.67
2018-03-29T12:58:10.505Z,39.04
2018-03-29T13:00:37.922Z,37.72
2018-03-29T13:03:05.348Z,36.17
2018-03-29T13:05:32.763Z,35.68
2018-03-29T13:08:00.588Z,36.88
2018-03-29T13:10:28.006Z,34.73
2018-03-29T13:12:55.498Z,32.84
2018-03-29T13:15:22.906Z,33.99
2018-03-29T13:17:50.319Z,36.42
2018-03-29T13:20:17.760Z,36.12
2018-03-29T13:22:45.582Z,36.31
2018-03-29T13:25:12.999Z,36.04
2018-03-29T13:27:41.171Z,36.93
2018-03-29T13:30:08.532Z,37.96
2018-03-29T13:32:35.971Z,39.02
2018-03-29T13:35:03.339Z,39.14
2018-03-29T13:37:30.732Z,39.74
2018-03-29T13:39:58.154Z,42.05
2018-03-29T13:42:25.536Z,41.30
2018-03-29T13:44:52.972Z,41.01
2018-03-29T13:47:20.433Z,41.48
2018-03-29T13:49:47.820Z,40.61
2018-03-29T13:52:15.226Z,43.02
2018-03-29T13:54:42.657Z,44.27
2018-03-29T13:57:10.805Z,48.75
2018-03-29T13:59:38.189Z,56.51
2018-03-29T14:02:05.625Z,55.58
2018-03-29T14:04:33.027Z,61.23
2018-03-29T14:07:00.433Z,60.20
2018-03-29T14:09:28.199Z,54.33
2018-03-29T14:11:55.652Z,49.01
2018-03-29T14:14:23.040Z,44.56
2018-03-29T14:16:50.442Z,45.90
2018-03-29T14:19:17.829Z,41.30
2018-03-29T14:21:45.254Z,41.34
2018-03-29T14:24:15.228Z,41.34
2018-03-29T14:26:42.939Z,42.08
2018-03-29T14:29:10.935Z,42.98
2018-03-29T14:31:38.359Z,43.44
2018-03-29T14:34:05.763Z,43.16
2018-03-29T14:36:34.351Z,43.82
2018-03-29T14:39:01.767Z,43.58
2018-03-29T14:41:29.186Z,43.04
2018-03-29T14:43:56.615Z,42.03
2018-03-29T14:46:23.989Z,41.22
2018-03-29T14:48:51.588Z,41.62
2018-03-29T14:51:18.953Z,41.39
2018-03-29T14:53:46.353Z,41.95
2018-03-29T14:56:13.729Z,41.47
2018-03-29T14:58:41.128Z,42.34
2018-03-29T15:01:08.533Z,42.98
2018-03-29T15:03:35.977Z,43.08
2018-03-29T15:06:03.359Z,40.41
2018-03-29T15:08:30.800Z,40.58
2018-03-29T15:10:58.186Z,41.29
2018-03-29T15:13:25.580Z,40.04
2018-03-29T15:15:52.993Z,39.25
2018-03-29T15:18:20.392Z,39.49
2018-03-29T15:20:48.901Z,40.09
2018-03-29T15:23:16.304Z,37.55
2018-03-29T15:25:43.686Z,36.43
2018-03-29T15:28:11.161Z,35.60
2018-03-29T15:30:38.549Z,34.83
2018-03-29T15:33:05.955Z,35.32
2018-03-29T15:35:33.360Z,35.70
2018-03-29T15:38:00.758Z,36.64
2018-03-29T15:40:28.146Z,35.25
2018-03-29T15:42:55.552Z,34.11
2018-03-29T15:45:23.239Z,34.14
2018-03-29T15:47:50.645Z,34.19
2018-03-29T15:50:18.046Z,34.54
2018-03-29T15:52:46.123Z,34.40
2018-03-29T15:55:13.554Z,36.19
2018-03-29T15:57:41.393Z,38.03
2018-03-29T16:00:08.801Z,38.14
2018-03-29T16:02:36.208Z,36.93
2018-03-29T16:05:03.616Z,35.63
2018-03-29T16:07:31.063Z,34.97
2018-03-29T16:09:58.523Z,35.18
2018-03-29T16:12:25.989Z,35.21
2018-03-29T16:14:53.318Z,34.32
2018-03-29T16:17:20.776Z,34.54
2018-03-29T16:19:48.176Z,36.74
2018-03-29T16:22:15.964Z,33.59
2018-03-29T16:24:43.360Z,33.75
2018-03-29T16:27:11.511Z,32.28
2018-03-29T16:29:38.913Z,34.00
2018-03-29T16:32:06.340Z,33.11
2018-03-29T16:34:33.706Z,34.46
2018-03-29T16:37:01.099Z,35.90
2018-03-29T16:39:28.622Z,34.85
2018-03-29T16:41:56.090Z,35.43
2018-03-29T16:44:23.485Z,35.92
2018-03-29T16:46:51.944Z,37.12
2018-03-29T16:49:19.375Z,37.41
2018-03-29T16:51:46.823Z,37.93
2018-03-29T16:54:14.225Z,38.43
2018-03-29T16:56:41.638Z,37.62
2018-03-29T16:59:09.050Z,38.61
2018-03-29T17:01:36.700Z,38.46
2018-03-29T17:04:04.094Z,39.14
2018-03-29T17:06:32.448Z,39.54
2018-03-29T17:08:59.858Z,39.84
2018-03-29T17:11:27.398Z,40.56
2018-03-29T17:13:54.913Z,40.07
2018-03-29T17:16:22.382Z,40.55
2018-03-29T17:18:49.774Z,40.32
2018-03-29T17:21:17.187Z,40.88
2018-03-29T17:23:44.705Z,40.58
2018-03-29T17:26:12.026Z,41.00
2018-03-29T17:28:39.427Z,41.13
2018-03-29T17:31:06.925Z,42.00
2018-03-29T17:33:34.354Z,42.61
2018-03-29T17:36:01.836Z,42.80
2018-03-29T17:38:29.231Z,42.91
2018-03-29T17:40:56.665Z,43.18
2018-03-29T17:43:24.066Z,43.03
2018-03-29T17:45:51.479Z,42.89
2018-03-29T17:48:19.109Z,42.62
2018-03-29T17:50:46.543Z,43.19
2018-03-29T17:53:13.925Z,43.42
2018-03-29T17:55:41.905Z,43.17
2018-03-29T17:58:09.337Z,43.60
2018-03-29T18:00:36.794Z,43.70
2018-03-29T18:03:04.228Z,44.00
2018-03-29T18:05:31.641Z,43.95
2018-03-29T18:07:59.028Z,43.39
2018-03-29T18:10:26.437Z,43.71
2018-03-29T18:12:53.831Z,43.96
2018-03-29T18:15:21.219Z,43.73
2018-03-29T18:17:48.611Z,44.44
2018-03-29T18:20:16.016Z,44.61
2018-03-29T18:22:46.102Z,45.01
2018-03-29T18:25:13.485Z,45.44
2018-03-29T18:27:41.081Z,45.09
2018-03-29T18:30:08.510Z,46.11
2018-03-29T18:32:35.908Z,45.52
2018-03-29T18:35:03.464Z,45.18
2018-03-29T18:37:30.857Z,45.87
2018-03-29T18:39:59.030Z,46.17
2018-03-29T18:42:26.401Z,46.19
2018-03-29T18:44:53.811Z,46.04
2018-03-29T18:47:21.329Z,46.02
2018-03-29T18:49:48.773Z,46.71
2018-03-29T18:52:16.182Z,46.73
2018-03-29T18:54:43.615Z,47.04
2018-03-29T18:57:11.002Z,46.04
2018-03-29T18:59:38.393Z,46.44
2018-03-29T19:02:05.792Z,47.94
2018-03-29T19:04:33.191Z,46.80
2018-03-29T19:07:00.703Z,45.98
2018-03-29T19:09:28.104Z,45.85
2018-03-29T19:11:55.498Z,46.71
2018-03-29T19:14:22.930Z,47.39
2018-03-29T19:16:51.417Z,47.99
2018-03-29T19:19:18.822Z,47.66
2018-03-29T19:21:46.270Z,46.93
2018-03-29T19:24:13.663Z,46.78
2018-03-29T19:26:41.107Z,46.80
2018-03-29T19:29:08.569Z,48.52
2018-03-29T19:31:36.134Z,48.51
2018-03-29T19:34:03.632Z,48.94
2018-03-29T19:36:31.069Z,48.63
2018-03-29T19:38:58.720Z,48.46
2018-03-29T19:41:26.117Z,48.37
2018-03-29T19:43:53.513Z,49.14
2018-03-29T19:46:20.918Z,49.21
2018-03-29T19:48:48.435Z,48.77
2018-03-29T19:51:15.853Z,49.17
2018-03-29T19:53:43.246Z,50.85
2018-03-29T19:56:10.644Z,50.67
2018-03-29T19:58:38.083Z,50.10
2018-03-29T20:01:05.434Z,50.68
2018-03-29T20:03:32.829Z,50.06
2018-03-29T20:06:00.383Z,50.21
2018-03-29T20:08:27.849Z,50.92
2018-03-29T20:10:55.418Z,50.89
2018-03-29T20:13:22.998Z,50.95
2018-03-29T20:15:51.378Z,50.75
2018-03-29T20:18:18.859Z,51.46
2018-03-29T20:20:46.610Z,52.32
2018-03-29T20:23:14.318Z,52.37
2018-03-29T20:25:42.632Z,51.80
2018-03-29T20:28:10.013Z,51.72
2018-03-29T20:30:37.651Z,52.75
2018-03-29T20:33:05.030Z,51.88
2018-03-29T20:35:32.576Z,51.60
2018-03-29T20:38:00.103Z,51.44
2018-03-29T20:40:27.600Z,51.36
2018-03-29T20:42:55.033Z,50.99
2018-03-29T20:45:22.635Z,50.47
2018-03-29T20:47:50.068Z,51.13
2018-03-29T20:50:17.674Z,50.39
2018-03-29T20:52:45.430Z,50.22
2018-03-29T20:55:12.963Z,50.41
2018-03-29T20:57:40.389Z,50.11
2018-03-29T21:00:07.903Z,49.88
2018-03-29T21:02:35.514Z,49.77
2018-03-29T21:05:02.988Z,49.37
2018-03-29T21:07:30.512Z,49.91
2018-03-29T21:09:57.949Z,49.52
2018-03-29T21:12:25.498Z,49.77
2018-03-29T21:14:52.909Z,50.07
2018-03-29T21:17:20.507Z,50.27
2018-03-29T21:19:47.994Z,49.70
2018-03-29T21:22:15.405Z,49.70
2018-03-29T21:24:44.901Z,49.95
2018-03-29T21:27:13.149Z,49.75
2018-03-29T21:29:40.877Z,49.99
2018-03-29T21:32:08.361Z,50.10
2018-03-29T21:34:35.794Z,49.99
2018-03-29T21:37:03.245Z,49.38
2018-03-29T21:39:30.692Z,49.69
2018-03-29T21:41:58.432Z,51.78
2018-03-29T21:44:25.900Z,51.68
2018-03-29T21:46:53.475Z,51.85
2018-03-29T21:49:21.087Z,51.88
2018-03-29T21:51:48.645Z,52.57
2018-03-29T21:54:16.044Z,51.78
2018-03-29T21:56:43.450Z,52.45
2018-03-29T21:59:11.004Z,52.15
2018-03-29T22:01:38.669Z,52.25
2018-03-29T22:04:06.126Z,52.63
2018-03-29T22:06:33.579Z,52.10
2018-03-29T22:09:01.093Z,51.40
2018-03-29T22:11:28.456Z,50.99
2018-03-29T22:13:56.089Z,52.61
2018-03-29T22:16:23.780Z,53.27
2018-03-29T22:18:51.475Z,53.91
2018-03-29T22:21:19.239Z,53.44
2018-03-29T22:23:46.854Z,52.98
2018-03-29T22:26:14.771Z,53.26
2018-03-29T22:28:43.263Z,51.97
2018-03-29T22:31:10.963Z,51.95
2018-03-29T22:33:38.653Z,51.50
2018-03-29T22:36:07.459Z,52.08
2018-03-29T22:38:35.122Z,52.13
2018-03-29T22:41:02.806Z,53.89
2018-03-29T22:43:30.961Z,54.41
2018-03-29T22:45:59.545Z,53.01
2018-03-29T22:48:27.252Z,52.62
2018-03-29T22:50:54.955Z,54.78
2018-03-29T22:53:22.648Z,55.99
2018-03-29T22:55:50.328Z,54.29
2018-03-29T22:58:17.961Z,53.39
2018-03-29T23:00:45.590Z,53.68
2018-03-29T23:03:14.073Z,53.36
2018-03-29T23:05:41.730Z,53.57
2018-03-29T23:08:09.459Z,53.66
2018-03-29T23:10:37.117Z,54.12
2018-03-29T23:13:05.697Z,53.51
2018-03-29T23:15:34.253Z,54.96
2018-03-29T23:18:01.942Z,55.40
2018-03-29T23:20:29.709Z,54.51
2018-03-29T23:22:57.370Z,54.20
2018-03-29T23:25:24.971Z,54.59
2018-03-29T23:27:52.561Z,54.55
2018-03-29T23:30:20.221Z,54.13
2018-03-29T23:32:47.907Z,54.46
2018-03-29T23:35:16.537Z,54.32
2018-03-29T23:37:44.165Z,55.70
2018-03-29T23:40:12.774Z,55.81
2018-03-29T23:42:40.762Z,55.66
2018-03-29T23:45:09.851Z,56.08
2018-03-29T23:47:37.444Z,54.87
2018-03-29T23:50:05.466Z,54.93
2018-03-29T23:52:33.125Z,54.21
2018-03-29T23:55:00.878Z,56.27
2018-03-29T23:57:29.164Z,56.55
2018-03-29T23:59:56.838Z,56.27
